sensor_id;sensor_type;location;lat;lon;timestamp;pressure;altitude;pressure_sealevel;temperature;humidity
37610;BME280;23457;51.966;8.230;2023-07-02T00:02:25;99953.25;;;17.89;100.00
37610;BME280;23457;51.966;8.230;2023-07-02T00:04:52;99944.53;;;17.87;100.00
37610;BME280;23457;51.966;8.230;2023-07-02T00:07:19;99945.44;;;17.86;100.00
37610;BME280;23457;51.966;8.230;2023-07-02T00:09:46;99942.81;;;17.86;100.00
37610;BME280;23457;51.966;8.230;2023-07-02T00:12:13;99934.81;;;17.90;100.00
37610;BME280;23457;51.966;8.230;2023-07-02T00:14:39;99933.28;;;17.83;100.00
37610;BME280;23457;51.966;8.230;2023-07-02T00:17:06;99933.59;;;17.71;100.00
37610;BME280;23457;51.966;8.230;2023-07-02T00:19:33;99927.84;;;17.89;100.00
37610;BME280;23457;51.966;8.230;2023-07-02T00:21:59;99923.63;;;17.84;100.00
37610;BME280;23457;51.966;8.230;2023-07-02T00:24:26;99928.19;;;17.76;100.00
37610;BME280;23457;51.966;8.230;2023-07-02T00:26:53;99924.59;;;17.80;100.00
37610;BME280;23457;51.966;8.230;2023-07-02T00:29:20;99928.88;;;17.84;100.00
37610;BME280;23457;51.966;8.230;2023-07-02T00:31:46;99922.66;;;17.86;100.00
37610;BME280;23457;51.966;8.230;2023-07-02T00:34:13;99921.75;;;17.87;100.00
37610;BME280;23457;51.966;8.230;2023-07-02T00:36:40;99919.66;;;17.68;100.00
37610;BME280;23457;51.966;8.230;2023-07-02T00:39:09;99937.25;;;17.63;100.00
37610;BME280;23457;51.966;8.230;2023-07-02T00:41:38;99926.38;;;17.78;100.00
37610;BME280;23457;51.966;8.230;2023-07-02T00:44:05;99904.31;;;17.85;100.00
37610;BME280;23457;51.966;8.230;2023-07-02T00:46:32;99904.50;;;17.77;100.00
37610;BME280;23457;51.966;8.230;2023-07-02T00:48:58;99915.47;;;17.59;100.00
37610;BME280;23457;51.966;8.230;2023-07-02T00:51:28;99917.78;;;17.73;100.00
37610;BME280;23457;51.966;8.230;2023-07-02T00:53:56;99919.41;;;17.77;100.00
37610;BME280;23457;51.966;8.230;2023-07-02T00:56:24;99925.41;;;17.46;100.00
37610;BME280;23457;51.966;8.230;2023-07-02T00:58:53;99920.63;;;17.64;100.00
37610;BME280;23457;51.966;8.230;2023-07-02T01:01:21;99924.72;;;17.74;100.00
37610;BME280;23457;51.966;8.230;2023-07-02T01:04:00;99918.75;;;17.69;100.00
37610;BME280;23457;51.966;8.230;2023-07-02T01:06:32;99917.88;;;17.68;100.00
37610;BME280;23457;51.966;8.230;2023-07-02T01:09:00;99920.81;;;17.54;100.00
37610;BME280;23457;51.966;8.230;2023-07-02T01:11:30;99915.41;;;17.61;100.00
37610;BME280;23457;51.966;8.230;2023-07-02T01:14:06;99912.47;;;17.74;100.00
37610;BME280;23457;51.966;8.230;2023-07-02T01:16:35;99920.66;;;17.61;100.00
37610;BME280;23457;51.966;8.230;2023-07-02T01:19:06;99923.38;;;17.58;100.00
37610;BME280;23457;51.966;8.230;2023-07-02T01:21:37;99920.66;;;17.61;100.00
37610;BME280;23457;51.966;8.230;2023-07-02T01:24:05;99915.06;;;17.76;100.00
37610;BME280;23457;51.966;8.230;2023-07-02T01:26:32;99909.97;;;17.70;100.00
37610;BME280;23457;51.966;8.230;2023-07-02T01:29:18;99906.97;;;17.83;100.00
37610;BME280;23457;51.966;8.230;2023-07-02T01:31:46;99907.19;;;17.74;100.00
37610;BME280;23457;51.966;8.230;2023-07-02T01:34:14;99907.53;;;17.61;100.00
37610;BME280;23457;51.966;8.230;2023-07-02T01:36:41;99901.16;;;17.72;100.00
37610;BME280;23457;51.966;8.230;2023-07-02T01:39:07;99885.41;;;17.71;100.00
37610;BME280;23457;51.966;8.230;2023-07-02T01:41:44;99886.31;;;17.70;100.00
37610;BME280;23457;51.966;8.230;2023-07-02T01:44:11;99891.69;;;17.65;100.00
37610;BME280;23457;51.966;8.230;2023-07-02T01:46:37;99907.59;;;17.59;100.00
37610;BME280;23457;51.966;8.230;2023-07-02T01:49:04;99903.22;;;17.58;100.00
37610;BME280;23457;51.966;8.230;2023-07-02T01:51:31;99902.34;;;17.59;100.00
37610;BME280;23457;51.966;8.230;2023-07-02T01:53:58;99907.91;;;17.47;100.00
37610;BME280;23457;51.966;8.230;2023-07-02T01:56:25;99904.84;;;17.62;100.00
37610;BME280;23457;51.966;8.230;2023-07-02T01:58:53;99904.09;;;17.59;100.00
37610;BME280;23457;51.966;8.230;2023-07-02T02:01:20;99906.94;;;17.49;100.00
37610;BME280;23457;51.966;8.230;2023-07-02T02:03:47;99912.59;;;17.34;100.00
37610;BME280;23457;51.966;8.230;2023-07-02T02:06:13;99910.63;;;17.42;100.00
37610;BME280;23457;51.966;8.230;2023-07-02T02:08:40;99907.34;;;17.34;100.00
37610;BME280;23457;51.966;8.230;2023-07-02T02:11:09;99919.09;;;17.53;100.00
37610;BME280;23457;51.966;8.230;2023-07-02T02:13:36;99919.16;;;17.50;100.00
37610;BME280;23457;51.966;8.230;2023-07-02T02:16:03;99919.28;;;17.47;100.00
37610;BME280;23457;51.966;8.230;2023-07-02T02:18:30;99919.31;;;17.46;100.00
37610;BME280;23457;51.966;8.230;2023-07-02T02:20:56;99915.59;;;17.53;100.00
37610;BME280;23457;51.966;8.230;2023-07-02T02:23:23;99918.09;;;17.59;100.00
37610;BME280;23457;51.966;8.230;2023-07-02T02:25:49;99914.44;;;17.66;100.00
37610;BME280;23457;51.966;8.230;2023-07-02T02:28:16;99918.84;;;17.64;100.00
37610;BME280;23457;51.966;8.230;2023-07-02T02:30:43;99920.81;;;17.54;100.00
37610;BME280;23457;51.966;8.230;2023-07-02T02:33:09;99921.53;;;17.61;100.00
37610;BME280;23457;51.966;8.230;2023-07-02T02:35:36;99912.03;;;17.55;100.00
37610;BME280;23457;51.966;8.230;2023-07-02T02:38:04;99926.31;;;17.45;100.00
37610;BME280;23457;51.966;8.230;2023-07-02T02:40:33;99924.34;;;17.53;100.00
37610;BME280;23457;51.966;8.230;2023-07-02T02:43:02;99926.09;;;17.54;100.00
37610;BME280;23457;51.966;8.230;2023-07-02T02:45:28;99924.28;;;17.57;100.00
37610;BME280;23457;51.966;8.230;2023-07-02T02:47:55;99904.78;;;17.67;100.00
37610;BME280;23457;51.966;8.230;2023-07-02T02:50:22;99902.41;;;17.56;100.00
37610;BME280;23457;51.966;8.230;2023-07-02T02:52:49;99898.56;;;17.71;100.00
37610;BME280;23457;51.966;8.230;2023-07-02T02:55:15;99909.44;;;17.54;100.00
37610;BME280;23457;51.966;8.230;2023-07-02T02:57:42;99916.44;;;17.55;100.00
37610;BME280;23457;51.966;8.230;2023-07-02T03:00:10;99912.13;;;17.52;100.00
37610;BME280;23457;51.966;8.230;2023-07-02T03:02:38;99915.41;;;17.61;100.00
37610;BME280;23457;51.966;8.230;2023-07-02T03:05:06;99917.03;;;17.68;100.00
37610;BME280;23457;51.966;8.230;2023-07-02T03:07:33;99912.94;;;17.54;100.00
37610;BME280;23457;51.966;8.230;2023-07-02T03:09:59;99909.25;;;17.62;100.00
37610;BME280;23457;51.966;8.230;2023-07-02T03:12:26;99915.28;;;17.67;100.00
37610;BME280;23457;51.966;8.230;2023-07-02T03:14:53;99918.31;;;17.50;100.00
37610;BME280;23457;51.966;8.230;2023-07-02T03:17:22;99908.22;;;17.70;100.00
37610;BME280;23457;51.966;8.230;2023-07-02T03:19:49;99920.91;;;17.51;100.00
37610;BME280;23457;51.966;8.230;2023-07-02T03:22:16;99926.16;;;17.51;100.00
37610;BME280;23457;51.966;8.230;2023-07-02T03:24:42;99921.13;;;17.42;100.00
37610;BME280;23457;51.966;8.230;2023-07-02T03:27:09;99921.25;;;17.36;100.00
37610;BME280;23457;51.966;8.230;2023-07-02T03:29:36;99918.00;;;17.62;100.00
37610;BME280;23457;51.966;8.230;2023-07-02T03:32:05;99920.06;;;17.49;100.00
37610;BME280;23457;51.966;8.230;2023-07-02T03:34:31;99917.59;;;17.43;100.00
37610;BME280;23457;51.966;8.230;2023-07-02T03:36:58;99916.97;;;17.34;100.00
37610;BME280;23457;51.966;8.230;2023-07-02T03:39:24;99930.56;;;17.49;100.00
37610;BME280;23457;51.966;8.230;2023-07-02T03:41:51;99929.13;;;17.38;100.00
37610;BME280;23457;51.966;8.230;2023-07-02T03:44:18;99932.00;;;17.27;100.00
37610;BME280;23457;51.966;8.230;2023-07-02T03:46:46;99947.13;;;17.53;100.00
37610;BME280;23457;51.966;8.230;2023-07-02T03:49:12;99940.88;;;17.59;100.00
37610;BME280;23457;51.966;8.230;2023-07-02T03:51:39;99938.88;;;17.33;100.00
37610;BME280;23457;51.966;8.230;2023-07-02T03:54:06;99947.41;;;17.42;100.00
37610;BME280;23457;51.966;8.230;2023-07-02T03:56:32;99960.06;;;17.25;100.00
37610;BME280;23457;51.966;8.230;2023-07-02T03:58:59;99959.88;;;17.34;100.00
37610;BME280;23457;51.966;8.230;2023-07-02T04:01:26;99959.88;;;17.34;100.00
37610;BME280;23457;51.966;8.230;2023-07-02T04:03:53;99959.69;;;17.40;100.00
37610;BME280;23457;51.966;8.230;2023-07-02T04:06:20;99972.22;;;17.29;100.00
37610;BME280;23457;51.966;8.230;2023-07-02T04:08:47;99971.81;;;17.47;100.00
37610;BME280;23457;51.966;8.230;2023-07-02T04:11:13;99975.75;;;17.28;100.00
37610;BME280;23457;51.966;8.230;2023-07-02T04:13:40;99989.78;;;17.27;100.00
37610;BME280;23457;51.966;8.230;2023-07-02T04:16:07;99988.25;;;17.17;100.00
37610;BME280;23457;51.966;8.230;2023-07-02T04:18:34;99980.63;;;17.06;100.00
37610;BME280;23457;51.966;8.230;2023-07-02T04:21:01;99989.97;;;17.19;100.00
37610;BME280;23457;51.966;8.230;2023-07-02T04:23:28;99996.72;;;17.30;100.00
37610;BME280;23457;51.966;8.230;2023-07-02T04:25:55;99988.34;;;17.12;100.00
37610;BME280;23457;51.966;8.230;2023-07-02T04:28:43;100000.31;;;17.26;100.00
37610;BME280;23457;51.966;8.230;2023-07-02T04:31:09;100006.44;;;17.26;100.00
37610;BME280;23457;51.966;8.230;2023-07-02T04:33:36;100005.78;;;17.16;100.00
37610;BME280;23457;51.966;8.230;2023-07-02T04:36:03;100008.66;;;17.04;100.00
37610;BME280;23457;51.966;8.230;2023-07-02T04:38:30;100004.34;;;17.02;100.00
37610;BME280;23457;51.966;8.230;2023-07-02T04:40:57;100016.56;;;17.03;100.00
37610;BME280;23457;51.966;8.230;2023-07-02T04:43:28;100017.16;;;17.15;100.00
37610;BME280;23457;51.966;8.230;2023-07-02T04:45:57;100015.53;;;17.10;100.00
37610;BME280;23457;51.966;8.230;2023-07-02T04:48:24;100023.28;;;17.16;100.00
37610;BME280;23457;51.966;8.230;2023-07-02T04:50:51;100022.41;;;17.17;100.00
37610;BME280;23457;51.966;8.230;2023-07-02T04:53:18;100031.44;;;17.04;100.00
37610;BME280;23457;51.966;8.230;2023-07-02T04:55:44;100027.00;;;17.07;100.00
37610;BME280;23457;51.966;8.230;2023-07-02T04:58:11;100028.47;;;17.19;100.00
37610;BME280;23457;51.966;8.230;2023-07-02T05:00:37;100037.09;;;17.24;100.00
37610;BME280;23457;51.966;8.230;2023-07-02T05:03:04;100032.53;;;16.94;100.00
37610;BME280;23457;51.966;8.230;2023-07-02T05:05:31;100041.03;;;17.05;100.00
37610;BME280;23457;51.966;8.230;2023-07-02T05:07:57;100033.69;;;17.21;100.00
37610;BME280;23457;51.966;8.230;2023-07-02T05:10:24;100040.03;;;17.10;100.00
37610;BME280;23457;51.966;8.230;2023-07-02T05:12:51;100040.88;;;17.11;100.00
37610;BME280;23457;51.966;8.230;2023-07-02T05:15:17;100042.50;;;17.18;100.00
37610;BME280;23457;51.966;8.230;2023-07-02T05:17:44;100043.97;;;17.31;100.00
37610;BME280;23457;51.966;8.230;2023-07-02T05:20:11;100043.97;;;17.31;100.00
37610;BME280;23457;51.966;8.230;2023-07-02T05:22:38;100048.16;;;17.38;100.00
37610;BME280;23457;51.966;8.230;2023-07-02T05:25:05;100051.00;;;17.29;100.00
37610;BME280;23457;51.966;8.230;2023-07-02T05:27:31;100055.47;;;17.24;100.00
37610;BME280;23457;51.966;8.230;2023-07-02T05:29:58;100058.19;;;17.21;100.00
37610;BME280;23457;51.966;8.230;2023-07-02T05:32:25;100055.28;;;17.35;100.00
37610;BME280;23457;51.966;8.230;2023-07-02T05:34:51;100064.97;;;17.31;100.00
37610;BME280;23457;51.966;8.230;2023-07-02T05:37:18;100062.63;;;17.19;100.00
37610;BME280;23457;51.966;8.230;2023-07-02T05:39:45;100063.56;;;17.15;100.00
37610;BME280;23457;51.966;8.230;2023-07-02T05:42:12;100062.97;;;17.42;100.00
37610;BME280;23457;51.966;8.230;2023-07-02T05:44:38;100061.00;;;17.52;100.00
37610;BME280;23457;51.966;8.230;2023-07-02T05:47:05;100061.25;;;17.41;100.00
37610;BME280;23457;51.966;8.230;2023-07-02T05:49:32;100066.66;;;17.74;100.00
37610;BME280;23457;51.966;8.230;2023-07-02T05:51:59;100073.53;;;17.79;100.00
37610;BME280;23457;51.966;8.230;2023-07-02T05:54:25;100075.56;;;17.68;100.00
37610;BME280;23457;51.966;8.230;2023-07-02T05:56:52;100077.81;;;17.85;100.00
37610;BME280;23457;51.966;8.230;2023-07-02T05:59:19;100077.69;;;17.88;100.00
37610;BME280;23457;51.966;8.230;2023-07-02T06:01:45;100088.59;;;17.73;100.00
37610;BME280;23457;51.966;8.230;2023-07-02T06:04:12;100084.97;;;17.77;99.52
37610;BME280;23457;51.966;8.230;2023-07-02T06:06:39;100082.84;;;17.54;97.95
37610;BME280;23457;51.966;8.230;2023-07-02T06:09:05;100084.34;;;17.67;97.35
37610;BME280;23457;51.966;8.230;2023-07-02T06:11:32;100092.28;;;17.64;96.44
37610;BME280;23457;51.966;8.230;2023-07-02T06:13:58;100089.09;;;17.48;95.30
37610;BME280;23457;51.966;8.230;2023-07-02T06:16:25;100096.66;;;17.62;96.18
37610;BME280;23457;51.966;8.230;2023-07-02T06:18:52;100095.16;;;17.90;94.45
37610;BME280;23457;51.966;8.230;2023-07-02T06:21:19;100103.16;;;17.86;92.38
37610;BME280;23457;51.966;8.230;2023-07-02T06:23:46;100102.06;;;17.96;90.11
37610;BME280;23457;51.966;8.230;2023-07-02T06:26:13;100101.41;;;17.86;89.28
37610;BME280;23457;51.966;8.230;2023-07-02T06:28:39;100099.47;;;17.95;88.84
37610;BME280;23457;51.966;8.230;2023-07-02T06:31:06;100096.88;;;17.93;88.06
37610;BME280;23457;51.966;8.230;2023-07-02T06:33:33;100098.38;;;18.03;87.77
37610;BME280;23457;51.966;8.230;2023-07-02T06:36:00;100100.47;;;17.89;87.15
37610;BME280;23457;51.966;8.230;2023-07-02T06:38:26;100106.56;;;17.91;87.79
37610;BME280;23457;51.966;8.230;2023-07-02T06:40:53;100108.19;;;17.97;85.95
37610;BME280;23457;51.966;8.230;2023-07-02T06:43:19;100108.06;;;18.01;85.86
37610;BME280;23457;51.966;8.230;2023-07-02T06:45:46;100112.72;;;17.90;83.96
37610;BME280;23457;51.966;8.230;2023-07-02T06:48:13;100116.03;;;17.98;81.64
37610;BME280;23457;51.966;8.230;2023-07-02T06:50:44;100125.81;;;17.92;81.37
37610;BME280;23457;51.966;8.230;2023-07-02T06:53:12;100118.66;;;17.60;82.17
37610;BME280;23457;51.966;8.230;2023-07-02T06:55:39;100123.38;;;17.84;81.85
37610;BME280;23457;51.966;8.230;2023-07-02T06:58:06;100125.81;;;17.92;80.70
37610;BME280;23457;51.966;8.230;2023-07-02T07:00:33;100127.34;;;18.00;80.69
37610;BME280;23457;51.966;8.230;2023-07-02T07:03:03;100129.28;;;17.94;78.71
37610;BME280;23457;51.966;8.230;2023-07-02T07:05:31;100123.63;;;18.10;77.49
37610;BME280;23457;51.966;8.230;2023-07-02T07:07:59;100130.13;;;17.96;79.49
37610;BME280;23457;51.966;8.230;2023-07-02T07:10:26;100127.25;;;18.05;79.35
37610;BME280;23457;51.966;8.230;2023-07-02T07:12:53;100133.13;;;18.16;78.99
37610;BME280;23457;51.966;8.230;2023-07-02T07:15:20;100138.72;;;18.02;77.88
37610;BME280;23457;51.966;8.230;2023-07-02T07:17:46;100127.28;;;18.39;77.09
37610;BME280;23457;51.966;8.230;2023-07-02T07:20:13;100131.44;;;18.49;77.06
37610;BME280;23457;51.966;8.230;2023-07-02T07:22:40;100142.53;;;18.24;76.54
37610;BME280;23457;51.966;8.230;2023-07-02T07:25:07;100132.66;;;18.36;76.53
37610;BME280;23457;51.966;8.230;2023-07-02T07:27:35;100138.06;;;18.30;77.26
37610;BME280;23457;51.966;8.230;2023-07-02T07:30:02;100138.47;;;18.48;76.82
37610;BME280;23457;51.966;8.230;2023-07-02T07:32:28;100138.81;;;18.35;76.11
37610;BME280;23457;51.966;8.230;2023-07-02T07:34:55;100151.38;;;18.59;76.83
37610;BME280;23457;51.966;8.230;2023-07-02T07:37:23;100148.59;;;18.64;75.96
37610;BME280;23457;51.966;8.230;2023-07-02T07:39:51;100153.06;;;18.62;77.54
37610;BME280;23457;51.966;8.230;2023-07-02T07:42:18;100152.56;;;18.46;76.28
37610;BME280;23457;51.966;8.230;2023-07-02T07:44:45;100139.16;;;18.55;78.70
37610;BME280;23457;51.966;8.230;2023-07-02T07:47:12;100143.97;;;18.38;78.47
37610;BME280;23457;51.966;8.230;2023-07-02T07:49:39;100144.38;;;18.58;77.86
37610;BME280;23457;51.966;8.230;2023-07-02T07:52:06;100156.53;;;18.62;73.35
37610;BME280;23457;51.966;8.230;2023-07-02T07:54:35;100163.47;;;18.66;72.40
37610;BME280;23457;51.966;8.230;2023-07-02T07:57:03;100158.78;;;18.77;68.59
37610;BME280;23457;51.966;8.230;2023-07-02T07:59:30;100158.25;;;18.65;66.86
37610;BME280;23457;51.966;8.230;2023-07-02T08:01:57;100152.22;;;18.93;65.78
37610;BME280;23457;51.966;8.230;2023-07-02T08:04:24;100162.50;;;19.03;64.98
37610;BME280;23457;51.966;8.230;2023-07-02T08:06:50;100176.88;;;18.89;63.00
37610;BME280;23457;51.966;8.230;2023-07-02T08:09:17;100167.53;;;18.78;60.51
37610;BME280;23457;51.966;8.230;2023-07-02T08:11:44;100175.59;;;18.73;60.87
37610;BME280;23457;51.966;8.230;2023-07-02T08:14:11;100179.72;;;18.82;60.83
37610;BME280;23457;51.966;8.230;2023-07-02T08:16:38;100185.53;;;18.94;59.67
37610;BME280;23457;51.966;8.230;2023-07-02T08:19:05;100167.59;;;19.09;60.29
37610;BME280;23457;51.966;8.230;2023-07-02T08:21:32;100166.91;;;19.33;62.45
37610;BME280;23457;51.966;8.230;2023-07-02T08:23:58;100175.38;;;19.44;62.07
37610;BME280;23457;51.966;8.230;2023-07-02T08:26:26;100190.19;;;19.50;58.49
37610;BME280;23457;51.966;8.230;2023-07-02T08:29:12;100187.31;;;19.57;54.21
37610;BME280;23457;51.966;8.230;2023-07-02T08:31:40;100187.03;;;19.66;58.61
37610;BME280;23457;51.966;8.230;2023-07-02T08:34:06;100192.28;;;19.68;55.04
37610;BME280;23457;51.966;8.230;2023-07-02T08:36:33;100195.50;;;19.78;55.82
37610;BME280;23457;51.966;8.230;2023-07-02T08:39:00;100199.66;;;19.86;56.82
37610;BME280;23457;51.966;8.230;2023-07-02T08:41:28;100201.13;;;19.65;52.87
37610;BME280;23457;51.966;8.230;2023-07-02T08:43:55;100203.28;;;19.51;52.42
37610;BME280;23457;51.966;8.230;2023-07-02T08:46:22;100193.63;;;19.52;52.18
37610;BME280;23457;51.966;8.230;2023-07-02T08:48:49;100211.72;;;19.33;50.11
37610;BME280;23457;51.966;8.230;2023-07-02T08:51:16;100229.88;;;19.11;49.80
37610;BME280;23457;51.966;8.230;2023-07-02T08:53:46;100221.41;;;19.31;50.41
37610;BME280;23457;51.966;8.230;2023-07-02T08:56:13;100217.53;;;19.44;50.79
37610;BME280;23457;51.966;8.230;2023-07-02T08:58:40;100212.53;;;19.35;49.78
37610;BME280;23457;51.966;8.230;2023-07-02T09:01:11;100219.75;;;19.27;50.85
37610;BME280;23457;51.966;8.230;2023-07-02T09:03:39;100224.88;;;19.33;50.67
37610;BME280;23457;51.966;8.230;2023-07-02T09:06:07;100213.34;;;19.37;50.80
37610;BME280;23457;51.966;8.230;2023-07-02T09:08:35;100213.13;;;19.45;49.31
37610;BME280;23457;51.966;8.230;2023-07-02T09:13:49;100228.16;;;19.41;49.24
37610;BME280;23457;51.966;8.230;2023-07-02T09:16:29;100240.69;;;19.33;48.93
37610;BME280;23457;51.966;8.230;2023-07-02T09:19:07;100235.50;;;19.30;49.61
37610;BME280;23457;51.966;8.230;2023-07-02T09:21:47;100228.41;;;19.32;49.71
37610;BME280;23457;51.966;8.230;2023-07-02T09:24:22;100232.59;;;19.39;50.85
37610;BME280;23457;51.966;8.230;2023-07-02T09:26:51;100241.19;;;19.47;50.35
37610;BME280;23457;51.966;8.230;2023-07-02T09:31:51;100235.31;;;19.38;49.05
37610;BME280;23457;51.966;8.230;2023-07-02T09:34:37;100238.03;;;19.35;50.25
37610;BME280;23457;51.966;8.230;2023-07-02T09:37:05;100238.31;;;19.24;50.27
37610;BME280;23457;51.966;8.230;2023-07-02T09:39:33;100244.69;;;19.48;51.21
37610;BME280;23457;51.966;8.230;2023-07-02T09:42:01;100237.78;;;19.42;51.92
37610;BME280;23457;51.966;8.230;2023-07-02T09:44:29;100229.66;;;19.51;50.80
37610;BME280;23457;51.966;8.230;2023-07-02T09:47:04;100241.50;;;19.67;49.75
37610;BME280;23457;51.966;8.230;2023-07-02T09:49:37;100237.16;;;19.65;50.70
37610;BME280;23457;51.966;8.230;2023-07-02T09:52:06;100252.69;;;19.43;50.45
37610;BME280;23457;51.966;8.230;2023-07-02T09:54:33;100243.38;;;19.31;50.69
37610;BME280;23457;51.966;8.230;2023-07-02T09:57:00;100236.81;;;19.46;51.10
37610;BME280;23457;51.966;8.230;2023-07-02T09:59:28;100240.13;;;19.54;51.94
37610;BME280;23457;51.966;8.230;2023-07-02T10:01:56;100241.13;;;19.80;50.57
37610;BME280;23457;51.966;8.230;2023-07-02T10:04:23;100246.28;;;19.53;50.83
37610;BME280;23457;51.966;8.230;2023-07-02T10:06:53;100259.78;;;19.41;50.42
37610;BME280;23457;51.966;8.230;2023-07-02T10:09:22;100258.72;;;19.50;50.52
37610;BME280;23457;51.966;8.230;2023-07-02T10:12:00;100265.59;;;19.54;51.17
37610;BME280;23457;51.966;8.230;2023-07-02T10:14:27;100258.38;;;19.62;52.33
37610;BME280;23457;51.966;8.230;2023-07-02T10:17:06;100253.53;;;19.76;50.66
37610;BME280;23457;51.966;8.230;2023-07-02T10:19:32;100256.88;;;19.83;50.62
37610;BME280;23457;51.966;8.230;2023-07-02T10:22:03;100252.03;;;19.98;49.54
37610;BME280;23457;51.966;8.230;2023-07-02T10:24:30;100259.16;;;20.24;49.96
37610;BME280;23457;51.966;8.230;2023-07-02T10:27:02;100255.78;;;20.49;50.52
37610;BME280;23457;51.966;8.230;2023-07-02T10:29:29;100246.56;;;20.88;50.47
37610;BME280;23457;51.966;8.230;2023-07-02T10:31:57;100257.00;;;20.91;48.76
37610;BME280;23457;51.966;8.230;2023-07-02T10:34:35;100247.47;;;20.61;48.35
37610;BME280;23457;51.966;8.230;2023-07-02T10:37:03;100249.28;;;20.59;49.60
37610;BME280;23457;51.966;8.230;2023-07-02T10:39:31;100252.25;;;20.76;48.38
37610;BME280;23457;51.966;8.230;2023-07-02T10:42:08;100247.94;;;20.73;48.95
37610;BME280;23457;51.966;8.230;2023-07-02T10:44:47;100248.78;;;21.27;49.33
37610;BME280;23457;51.966;8.230;2023-07-02T10:47:14;100247.44;;;21.63;47.67
37610;BME280;23457;51.966;8.230;2023-07-02T10:49:41;100241.91;;;21.69;48.06
37610;BME280;23457;51.966;8.230;2023-07-02T10:52:07;100250.91;;;21.65;48.74
37610;BME280;23457;51.966;8.230;2023-07-02T10:54:44;100254.06;;;21.00;48.20
37610;BME280;23457;51.966;8.230;2023-07-02T10:57:17;100253.47;;;21.17;48.98
37610;BME280;23457;51.966;8.230;2023-07-02T10:59:47;100258.13;;;20.84;48.29
37610;BME280;23457;51.966;8.230;2023-07-02T11:02:15;100257.06;;;20.63;49.50
37610;BME280;23457;51.966;8.230;2023-07-02T11:04:42;100253.34;;;20.95;49.44
37610;BME280;23457;51.966;8.230;2023-07-02T11:07:14;100252.59;;;21.17;50.99
37610;BME280;23457;51.966;8.230;2023-07-02T11:09:50;100259.81;;;21.63;50.14
37610;BME280;23457;51.966;8.230;2023-07-02T11:12:17;100252.69;;;21.65;48.11
37610;BME280;23457;51.966;8.230;2023-07-02T11:14:44;100264.84;;;21.21;48.51
37610;BME280;23457;51.966;8.230;2023-07-02T11:17:10;100274.09;;;20.53;49.04
37610;BME280;23457;51.966;8.230;2023-07-02T11:19:38;100266.81;;;20.32;49.90
37610;BME280;23457;51.966;8.230;2023-07-02T11:22:05;100282.56;;;20.35;50.96
37610;BME280;23457;51.966;8.230;2023-07-02T11:24:33;100275.16;;;20.18;50.84
37610;BME280;23457;51.966;8.230;2023-07-02T11:27:04;100275.56;;;20.34;51.98
37610;BME280;23457;51.966;8.230;2023-07-02T11:29:35;100267.47;;;20.94;50.40
37610;BME280;23457;51.966;8.230;2023-07-02T11:32:06;100253.63;;;21.39;50.52
37610;BME280;23457;51.966;8.230;2023-07-02T11:34:33;100263.78;;;21.74;48.74
37610;BME280;23457;51.966;8.230;2023-07-02T11:37:00;100261.97;;;22.00;47.83
37610;BME280;23457;51.966;8.230;2023-07-02T11:39:27;100255.91;;;21.96;46.40
37610;BME280;23457;51.966;8.230;2023-07-02T11:41:53;100244.88;;;22.30;47.98
37610;BME280;23457;51.966;8.230;2023-07-02T11:44:20;100266.09;;;22.74;46.65
37610;BME280;23457;51.966;8.230;2023-07-02T11:46:47;100256.09;;;23.02;45.30
37610;BME280;23457;51.966;8.230;2023-07-02T11:49:14;100258.75;;;23.22;44.99
37610;BME280;23457;51.966;8.230;2023-07-02T11:51:42;100259.91;;;22.95;45.25
37610;BME280;23457;51.966;8.230;2023-07-02T11:54:16;100260.38;;;22.17;45.52
37610;BME280;23457;51.966;8.230;2023-07-02T11:56:44;100266.97;;;21.59;47.66
37610;BME280;23457;51.966;8.230;2023-07-02T11:59:11;100274.66;;;21.42;48.17
37610;BME280;23457;51.966;8.230;2023-07-02T12:01:38;100278.63;;;21.29;48.82
37610;BME280;23457;51.966;8.230;2023-07-02T12:04:04;100280.50;;;21.52;48.76
37610;BME280;23457;51.966;8.230;2023-07-02T12:06:32;100280.97;;;21.38;48.53
37610;BME280;23457;51.966;8.230;2023-07-02T12:09:02;100272.78;;;21.92;47.45
37610;BME280;23457;51.966;8.230;2023-07-02T12:11:30;100268.13;;;22.45;46.95
37610;BME280;23457;51.966;8.230;2023-07-02T12:13:57;100266.19;;;22.71;44.06
37610;BME280;23457;51.966;8.230;2023-07-02T12:16:23;100263.28;;;22.78;45.68
37610;BME280;23457;51.966;8.230;2023-07-02T12:18:50;100261.94;;;23.10;44.26
37610;BME280;23457;51.966;8.230;2023-07-02T12:21:17;100271.53;;;23.13;42.85
37610;BME280;23457;51.966;8.230;2023-07-02T12:23:45;100258.75;;;22.80;43.19
37610;BME280;23457;51.966;8.230;2023-07-02T12:26:11;100274.59;;;22.38;44.27
37610;BME280;23457;51.966;8.230;2023-07-02T12:28:38;100273.47;;;21.99;45.96
37610;BME280;23457;51.966;8.230;2023-07-02T12:31:05;100275.63;;;21.64;46.31
37610;BME280;23457;51.966;8.230;2023-07-02T12:33:31;100280.69;;;21.94;46.28
37610;BME280;23457;51.966;8.230;2023-07-02T12:35:58;100284.03;;;21.75;45.73
37610;BME280;23457;51.966;8.230;2023-07-02T12:38:25;100282.28;;;21.74;46.45
37610;BME280;23457;51.966;8.230;2023-07-02T12:40:52;100287.97;;;22.12;46.06
37610;BME280;23457;51.966;8.230;2023-07-02T12:43:19;100283.00;;;22.70;44.40
37610;BME280;23457;51.966;8.230;2023-07-02T12:45:46;100284.59;;;23.17;43.46
37610;BME280;23457;51.966;8.230;2023-07-02T12:48:13;100293.31;;;22.99;41.67
37610;BME280;23457;51.966;8.230;2023-07-02T12:50:40;100294.31;;;22.75;40.93
37610;BME280;23457;51.966;8.230;2023-07-02T12:53:07;100290.09;;;22.69;41.36
37610;BME280;23457;51.966;8.230;2023-07-02T12:55:34;100299.72;;;22.50;42.97
37610;BME280;23457;51.966;8.230;2023-07-02T12:58:00;100284.97;;;22.88;42.87